Time;durP1;ratioP1;P1;durP2;ratioP2;P2;SDS_P1;SDS_P2;PMS_P1;PMS_P2;Temp;Humidity;BMP_temperature;BMP_pressure;BME280_temperature;BME280_humidity;BME280_pressure;Samples;Min_cycle;Max_cycle;Signal;HPM_P1;HPM_P2
2023/06/29 00:00:40;;;;;;;32.45;24.83;;;19.30;99.90;;;;;;5097508;28;20488;-65
2023/06/29 00:03:06;;;;;;;30.63;25.05;;;19.30;99.90;;;;;;5107213;28;20420;-65
2023/06/29 00:05:32;;;;;;;32.97;24.50;;;19.30;99.90;;;;;;5079914;28;20899;-65
2023/06/29 00:07:59;;;;;;;33.50;25.08;;;19.30;99.90;;;;;;5107502;28;20400;-65
2023/06/29 00:10:25;;;;;;;32.70;25.57;;;19.30;99.90;;;;;;5101759;28;20409;-65
2023/06/29 00:12:51;;;;;;;33.20;25.13;;;19.30;99.90;;;;;;5082809;28;20410;-65
2023/06/29 00:15:17;;;;;;;34.22;25.13;;;19.30;99.90;;;;;;5104354;28;20392;-65
2023/06/29 00:17:47;;;;;;;32.17;24.92;;;19.30;99.90;;;;;;5111258;28;20384;-65
2023/06/29 00:20:13;;;;;;;31.23;24.60;;;19.30;99.90;;;;;;5099233;28;20419;-65
2023/06/29 00:22:40;;;;;;;33.45;25.83;;;19.30;99.90;;;;;;5100153;28;20402;-65
2023/06/29 00:25:09;;;;;;;38.05;26.58;;;19.30;99.90;;;;;;5098584;28;20395;-65
2023/06/29 00:27:35;;;;;;;34.08;26.00;;;19.30;99.90;;;;;;5105465;28;20760;-65
2023/06/29 00:30:00;;;;;;;38.95;27.73;;;19.30;99.90;;;;;;5108412;28;20433;-65
2023/06/29 00:32:26;;;;;;;34.73;27.00;;;19.20;99.90;;;;;;5106332;28;20382;-65
2023/06/29 00:34:52;;;;;;;36.53;27.20;;;19.20;99.90;;;;;;5110331;28;20766;-65
2023/06/29 00:37:17;;;;;;;37.65;27.45;;;19.20;99.90;;;;;;5099569;28;20942;-65
2023/06/29 00:39:43;;;;;;;37.05;27.80;;;19.20;99.90;;;;;;5093752;28;20404;-65
2023/06/29 00:42:09;;;;;;;35.50;27.37;;;19.20;99.90;;;;;;5091045;28;20393;-65
2023/06/29 00:44:34;;;;;;;35.80;28.20;;;19.20;99.90;;;;;;5104267;28;20479;-65
2023/06/29 00:47:00;;;;;;;35.03;26.93;;;19.20;99.90;;;;;;5109796;28;20912;-65
2023/06/29 00:49:26;;;;;;;38.45;27.00;;;19.50;99.90;;;;;;5095831;28;20404;-65
2023/06/29 00:51:53;;;;;;;36.23;26.43;;;19.20;99.90;;;;;;5082147;28;20782;-65
2023/06/29 00:54:20;;;;;;;34.20;26.27;;;19.20;99.90;;;;;;5108398;28;20393;-65
2023/06/29 00:56:46;;;;;;;36.20;26.92;;;19.20;99.90;;;;;;5102952;28;20410;-65
2023/06/29 00:59:12;;;;;;;36.22;26.92;;;19.20;99.90;;;;;;5109297;28;20384;-65
2023/06/29 01:01:39;;;;;;;37.00;27.48;;;19.20;99.90;;;;;;5096796;28;20453;-65
2023/06/29 01:04:09;;;;;;;33.78;26.90;;;19.20;99.90;;;;;;5090410;28;21170;-65
2023/06/29 01:06:46;;;;;;;37.83;27.75;;;19.20;99.90;;;;;;5097575;28;20572;-65
2023/06/29 01:09:13;;;;;;;34.47;27.23;;;19.20;99.90;;;;;;5107987;28;20395;-65
2023/06/29 01:11:39;;;;;;;34.50;26.85;;;19.10;99.90;;;;;;5106111;28;20419;-67
2023/06/29 01:14:07;;;;;;;37.83;28.93;;;19.20;99.90;;;;;;5103317;28;20392;-65
2023/06/29 01:16:35;;;;;;;36.40;27.30;;;19.20;99.90;;;;;;5095253;28;20903;-65
2023/06/29 01:19:03;;;;;;;35.92;28.25;;;19.10;99.90;;;;;;5100683;28;20384;-65
2023/06/29 01:21:30;;;;;;;43.10;29.10;;;19.10;99.90;;;;;;5096016;28;20408;-65
2023/06/29 01:23:58;;;;;;;37.63;28.60;;;19.10;99.90;;;;;;5092854;28;20394;-65
2023/06/29 01:26:23;;;;;;;35.70;28.13;;;19.10;99.90;;;;;;5099826;22;20528;-78
2023/06/29 01:28:50;;;;;;;39.13;28.87;;;19.10;99.90;;;;;;5049502;28;20532;-78
2023/06/29 01:31:16;;;;;;;36.33;28.00;;;19.10;99.90;;;;;;5045651;28;20746;-77
2023/06/29 01:33:42;;;;;;;40.45;29.98;;;19.10;99.90;;;;;;5033156;28;20403;-77
2023/06/29 01:36:15;;;;;;;37.47;29.45;;;19.10;99.90;;;;;;5042327;28;20438;-78
2023/06/29 01:38:50;;;;;;;37.72;28.65;;;19.10;99.90;;;;;;5038286;28;20393;-77
2023/06/29 01:41:16;;;;;;;39.03;28.80;;;19.10;99.90;;;;;;5037596;28;20768;-78
2023/06/29 01:43:43;;;;;;;39.83;30.25;;;19.10;99.90;;;;;;5035459;28;20551;-77
2023/06/29 01:46:10;;;;;;;38.50;29.90;;;19.10;99.90;;;;;;5028941;28;20950;-78
2023/06/29 01:48:37;;;;;;;40.17;29.58;;;19.10;99.90;;;;;;5053285;28;20440;-77
2023/06/29 01:51:03;;;;;;;38.83;29.30;;;19.00;99.90;;;;;;5031451;28;20438;-78
2023/06/29 01:53:28;;;;;;;37.92;29.67;;;19.00;99.90;;;;;;5028755;28;20516;-77
2023/06/29 01:55:54;;;;;;;39.23;29.40;;;19.00;99.90;;;;;;5037418;28;20427;-77
2023/06/29 01:58:20;;;;;;;38.93;29.37;;;19.00;99.90;;;;;;5029706;28;20477;-77
2023/06/29 02:00:45;;;;;;;40.67;29.17;;;19.00;99.90;;;;;;5028502;28;20414;-77
2023/06/29 02:03:11;;;;;;;38.80;29.75;;;19.00;99.90;;;;;;5037055;28;20405;-78
2023/06/29 02:05:37;;;;;;;40.72;30.70;;;19.00;99.90;;;;;;5030444;28;20442;-77
2023/06/29 02:08:02;;;;;;;39.73;30.57;;;19.00;99.90;;;;;;5037899;28;20425;-77
2023/06/29 02:10:28;;;;;;;40.10;30.23;;;19.00;99.90;;;;;;5028239;28;20437;-77
2023/06/29 02:12:54;;;;;;;42.47;31.00;;;18.90;99.90;;;;;;5035410;28;20401;-78
2023/06/29 02:15:19;;;;;;;39.53;30.83;;;19.10;99.90;;;;;;5038566;28;20409;-78
2023/06/29 02:17:45;;;;;;;38.95;30.25;;;19.00;99.90;;;;;;5032472;28;20961;-78
2023/06/29 02:20:11;;;;;;;39.43;30.77;;;19.20;99.90;;;;;;5011362;28;20434;-78
2023/06/29 02:22:36;;;;;;;39.92;30.70;;;19.00;99.90;;;;;;5030036;28;20446;-78
2023/06/29 02:25:02;;;;;;;41.63;31.30;;;19.00;99.90;;;;;;5027945;28;20403;-78
2023/06/29 02:27:28;;;;;;;40.10;31.48;;;19.00;99.90;;;;;;5024302;28;20431;-78
2023/06/29 02:29:53;;;;;;;45.20;32.08;;;19.00;99.90;;;;;;5028299;28;20502;-78
2023/06/29 02:32:19;;;;;;;41.23;31.10;;;19.00;99.90;;;;;;5028856;28;20452;-78
2023/06/29 02:34:44;;;;;;;41.83;31.30;;;19.00;99.90;;;;;;5025238;28;20436;-78
2023/06/29 02:37:10;;;;;;;40.92;31.45;;;19.00;99.90;;;;;;5033712;28;20430;-78
2023/06/29 02:39:36;;;;;;;39.73;31.50;;;19.00;99.90;;;;;;5029484;28;20407;-77
2023/06/29 02:42:01;;;;;;;39.93;31.30;;;19.20;99.90;;;;;;5025877;28;20419;-77
2023/06/29 02:44:27;;;;;;;42.72;32.38;;;19.00;99.90;;;;;;5025789;28;20415;-77
2023/06/29 02:46:53;;;;;;;42.97;31.77;;;19.00;99.90;;;;;;5027264;28;20430;-78
2023/06/29 02:49:18;;;;;;;41.83;32.10;;;19.00;99.90;;;;;;5035794;28;20520;-78
2023/06/29 02:51:44;;;;;;;44.13;32.10;;;19.00;99.90;;;;;;5028431;28;20411;-77
2023/06/29 02:54:09;;;;;;;43.07;32.07;;;19.00;99.90;;;;;;5045098;28;20585;-77
2023/06/29 02:56:38;;;;;;;41.28;31.33;;;19.30;99.90;;;;;;5027239;28;20946;-78
2023/06/29 02:59:03;;;;;;;43.10;32.72;;;19.00;99.90;;;;;;5027790;28;20946;-77
2023/06/29 03:01:29;;;;;;;41.35;32.30;;;19.00;99.90;;;;;;5028052;28;20441;-77
2023/06/29 03:03:54;;;;;;;42.97;32.03;;;19.00;99.90;;;;;;5029445;28;20403;-78
2023/06/29 03:06:20;;;;;;;44.90;33.83;;;19.00;99.90;;;;;;5028127;28;20940;-79
2023/06/29 03:08:45;;;;;;;42.05;32.60;;;19.40;99.90;;;;;;5026811;28;20419;-77
2023/06/29 03:11:11;;;;;;;42.83;32.83;;;18.90;99.90;;;;;;5031155;28;20418;-77
2023/06/29 03:13:37;;;;;;;42.53;33.10;;;19.00;99.90;;;;;;5033576;28;20414;-77
2023/06/29 03:16:02;;;;;;;44.25;32.42;;;19.00;99.90;;;;;;5039053;28;20466;-77
2023/06/29 03:18:28;;;;;;;40.20;31.42;;;19.00;99.90;;;;;;5031723;28;20445;-77
2023/06/29 03:20:54;;;;;;;41.97;32.13;;;19.10;99.90;;;;;;5032948;28;20493;-78
2023/06/29 03:23:19;;;;;;;40.67;32.30;;;19.40;99.90;;;;;;5031376;28;20435;-77
2023/06/29 03:25:45;;;;;;;40.77;32.37;;;19.00;99.90;;;;;;5039545;28;20453;-78
2023/06/29 03:28:11;;;;;;;44.08;32.00;;;19.00;99.90;;;;;;5030464;28;20427;-77
2023/06/29 03:30:36;;;;;;;38.75;31.63;;;19.00;99.90;;;;;;5031211;28;20442;-77
2023/06/29 03:33:02;;;;;;;43.13;32.23;;;19.00;99.90;;;;;;5031410;28;20433;-77
2023/06/29 03:35:27;;;;;;;45.50;32.42;;;19.10;99.90;;;;;;5032373;28;20403;-78
2023/06/29 03:37:53;;;;;;;41.80;32.30;;;19.40;99.90;;;;;;5030148;28;20476;-78
2023/06/29 03:40:19;;;;;;;43.73;33.10;;;19.00;99.90;;;;;;5044044;28;20401;-77
2023/06/29 03:42:44;;;;;;;42.10;32.40;;;19.10;99.90;;;;;;5037680;28;20411;-77
2023/06/29 03:45:10;;;;;;;41.80;32.55;;;19.10;99.90;;;;;;5047116;28;20416;-77
2023/06/29 03:47:35;;;;;;;40.83;31.15;;;19.10;99.90;;;;;;5029786;28;20465;-78
2023/06/29 03:50:01;;;;;;;42.43;31.93;;;19.20;99.90;;;;;;5042562;28;20407;-78
2023/06/29 03:52:27;;;;;;;39.77;31.93;;;19.10;99.90;;;;;;5040079;28;20456;-78
2023/06/29 03:54:52;;;;;;;40.92;31.27;;;19.10;99.90;;;;;;5030945;28;20411;-78
2023/06/29 03:57:18;;;;;;;44.67;31.93;;;19.30;99.90;;;;;;5032457;28;20462;-78
2023/06/29 03:59:43;;;;;;;41.77;31.00;;;19.10;99.90;;;;;;5038862;28;21059;-77
2023/06/29 04:02:09;;;;;;;43.13;31.95;;;19.10;99.90;;;;;;5028021;28;20426;-79
2023/06/29 04:04:34;;;;;;;41.47;31.35;;;19.50;99.90;;;;;;5041661;28;20405;-78
2023/06/29 04:07:00;;;;;;;38.47;30.33;;;19.10;99.90;;;;;;5030878;28;20964;-79
2023/06/29 04:09:26;;;;;;;41.00;31.27;;;19.20;99.90;;;;;;5031533;28;20391;-78
2023/06/29 04:11:51;;;;;;;38.33;30.63;;;19.20;99.90;;;;;;5031508;28;20418;-78
2023/06/29 04:14:17;;;;;;;38.27;30.83;;;19.20;99.90;;;;;;5034117;28;20948;-77
2023/06/29 04:16:42;;;;;;;39.97;32.30;;;19.20;99.90;;;;;;5031579;28;20488;-77
2023/06/29 04:19:08;;;;;;;39.55;31.85;;;19.30;99.90;;;;;;5029659;28;20435;-78
2023/06/29 04:21:35;;;;;;;40.37;30.83;;;19.30;99.90;;;;;;5027418;28;20403;-76
2023/06/29 04:24:01;;;;;;;41.95;31.88;;;19.30;99.90;;;;;;5029888;28;20431;-78
2023/06/29 04:26:27;;;;;;;37.60;31.07;;;19.30;99.90;;;;;;5030855;28;20442;-77
2023/06/29 04:29:03;;;;;;;40.60;31.70;;;19.30;99.90;;;;;;5030314;28;20411;-77
2023/06/29 04:31:29;;;;;;;42.42;32.55;;;19.30;99.90;;;;;;5031425;28;20411;-77
2023/06/29 04:33:58;;;;;;;42.77;33.00;;;19.30;99.90;;;;;;5024804;28;20414;-77
2023/06/29 04:36:24;;;;;;;41.72;32.38;;;19.30;99.90;;;;;;5029407;28;21007;-79
2023/06/29 04:38:50;;;;;;;41.20;32.43;;;19.40;99.90;;;;;;5027348;28;20413;-77
2023/06/29 04:41:16;;;;;;;44.67;32.30;;;19.40;99.90;;;;;;5031405;28;20421;-76
2023/06/29 04:43:42;;;;;;;39.20;31.17;;;19.50;99.90;;;;;;5034600;28;20426;-77
2023/06/29 04:46:08;;;;;;;39.72;31.83;;;19.40;99.90;;;;;;5029445;28;20407;-77
2023/06/29 04:48:37;;;;;;;41.97;31.30;;;19.40;99.90;;;;;;5033403;28;20946;-76
2023/06/29 04:51:06;;;;;;;42.38;32.22;;;19.50;99.90;;;;;;5028380;28;20427;-77
2023/06/29 04:53:35;;;;;;;40.85;31.85;;;19.50;99.90;;;;;;5038338;28;20631;-77
2023/06/29 04:56:01;;;;;;;45.00;32.42;;;19.50;99.90;;;;;;5027979;28;20928;-76
2023/06/29 04:58:27;;;;;;;40.05;30.80;;;19.60;99.90;;;;;;5036706;28;20430;-77
2023/06/29 05:00:54;;;;;;;43.83;32.87;;;19.60;99.90;;;;;;5034074;28;20823;-77
2023/06/29 05:03:20;;;;;;;41.97;31.73;;;19.70;99.90;;;;;;5028310;28;21032;-76
2023/06/29 05:05:46;;;;;;;44.38;32.17;;;19.70;99.90;;;;;;5027577;28;20403;-76
2023/06/29 05:08:12;;;;;;;50.33;32.57;;;19.70;99.90;;;;;;5027397;28;20514;-77
2023/06/29 05:10:37;;;;;;;39.80;30.73;;;19.70;99.90;;;;;;5029342;28;20422;-76
2023/06/29 05:13:03;;;;;;;40.90;30.88;;;19.70;99.90;;;;;;5028961;28;20425;-76
2023/06/29 05:15:28;;;;;;;40.97;30.95;;;19.80;99.90;;;;;;5029080;28;20898;-77
2023/06/29 05:17:54;;;;;;;42.47;31.33;;;19.80;99.90;;;;;;5025438;28;20435;-76
2023/06/29 05:20:20;;;;;;;39.63;31.10;;;19.80;99.90;;;;;;5037199;28;20491;-76
2023/06/29 05:22:46;;;;;;;40.63;31.25;;;19.80;99.90;;;;;;5029337;28;20406;-76
2023/06/29 05:25:11;;;;;;;40.28;31.27;;;19.90;99.90;;;;;;5021412;28;20767;-76
2023/06/29 05:27:37;;;;;;;37.45;30.02;;;19.90;99.90;;;;;;5038500;28;20824;-79
2023/06/29 05:30:03;;;;;;;41.47;30.43;;;19.90;99.90;;;;;;5032955;28;20403;-79
2023/06/29 05:32:29;;;;;;;41.37;29.53;;;19.90;99.90;;;;;;5008175;28;20449;-79
2023/06/29 05:34:54;;;;;;;37.73;29.40;;;20.00;99.90;;;;;;5010979;28;20406;-79
2023/06/29 05:37:20;;;;;;;36.63;29.05;;;20.00;99.90;;;;;;5029838;28;20427;-79
2023/06/29 05:39:46;;;;;;;42.45;30.15;;;20.00;99.90;;;;;;5028831;28;20437;-79
2023/06/29 05:42:12;;;;;;;38.45;29.45;;;20.00;99.90;;;;;;5029002;28;20414;-79
2023/06/29 05:44:37;;;;;;;35.55;27.85;;;20.00;99.90;;;;;;5028837;28;20503;-79
2023/06/29 05:47:03;;;;;;;38.78;28.38;;;20.00;99.90;;;;;;5040586;28;20420;-80
2023/06/29 05:49:29;;;;;;;36.63;28.83;;;20.00;99.90;;;;;;5028564;28;20930;-79
2023/06/29 05:51:55;;;;;;;37.63;30.10;;;20.00;99.90;;;;;;5029272;28;20940;-79
2023/06/29 05:54:24;;;;;;;37.73;29.13;;;20.10;99.90;;;;;;5012524;28;20631;-79
2023/06/29 05:56:49;;;;;;;38.92;29.98;;;20.10;99.90;;;;;;5040076;28;20437;-79
2023/06/29 05:59:15;;;;;;;39.13;29.95;;;20.00;99.90;;;;;;5029457;28;20406;-79
2023/06/29 06:01:40;;;;;;;40.80;31.97;;;20.00;99.90;;;;;;5029186;28;20424;-79
2023/06/29 06:04:06;;;;;;;40.67;31.03;;;20.00;99.90;;;;;;5030202;28;20418;-79
2023/06/29 06:06:32;;;;;;;41.70;31.13;;;20.00;99.90;;;;;;5040604;28;20412;-80
2023/06/29 06:08:58;;;;;;;39.40;30.02;;;20.00;99.90;;;;;;5034421;28;20413;-80
2023/06/29 06:11:24;;;;;;;40.95;31.17;;;20.00;99.90;;;;;;5032610;28;20485;-80
2023/06/29 06:13:50;;;;;;;44.13;31.63;;;20.00;99.90;;;;;;5034171;28;20520;-80
2023/06/29 06:16:15;;;;;;;43.78;33.45;;;20.00;99.90;;;;;;5029042;28;20526;-80
2023/06/29 06:18:41;;;;;;;41.80;32.75;;;19.90;99.90;;;;;;5015084;28;20409;-80
2023/06/29 06:21:06;;;;;;;42.00;32.77;;;19.90;99.90;;;;;;5029150;28;20418;-80
2023/06/29 06:23:32;;;;;;;43.87;33.13;;;19.90;99.90;;;;;;5029145;28;20518;-80
2023/06/29 06:25:58;;;;;;;43.05;32.58;;;19.90;99.90;;;;;;5028448;28;20460;-80
2023/06/29 06:28:26;;;;;;;42.77;31.90;;;19.90;99.90;;;;;;5030584;28;20399;-80
2023/06/29 06:30:52;;;;;;;45.63;34.08;;;19.90;99.90;;;;;;5028650;28;20407;-80
2023/06/29 06:33:17;;;;;;;43.40;32.85;;;19.90;99.90;;;;;;5032161;28;20468;-80
2023/06/29 06:35:44;;;;;;;43.85;31.55;;;20.10;99.90;;;;;;5035652;28;22390;-80
2023/06/29 06:38:10;;;;;;;46.20;32.35;;;19.90;99.90;;;;;;5018954;28;20423;-80
2023/06/29 06:40:35;;;;;;;44.92;32.78;;;19.90;99.90;;;;;;5036211;28;20407;-80
2023/06/29 06:43:01;;;;;;;42.33;31.65;;;19.90;99.90;;;;;;5050236;28;20474;-80
2023/06/29 06:45:27;;;;;;;45.72;31.80;;;20.00;99.90;;;;;;5041938;28;20984;-80
2023/06/29 06:47:53;;;;;;;40.00;30.38;;;20.00;99.90;;;;;;5040555;28;20463;-80
2023/06/29 06:50:20;;;;;;;37.83;30.67;;;20.00;99.90;;;;;;5034490;28;20417;-80
2023/06/29 06:52:46;;;;;;;42.25;32.70;;;20.10;99.90;;;;;;5042042;28;20473;-80
2023/06/29 06:55:12;;;;;;;41.17;31.63;;;20.10;99.90;;;;;;5046649;28;20435;-80
2023/06/29 06:57:38;;;;;;;42.58;33.70;;;20.10;99.90;;;;;;5036984;28;20524;-80
2023/06/29 07:00:05;;;;;;;47.25;35.00;;;20.10;99.90;;;;;;5036053;28;20408;-80
2023/06/29 07:02:31;;;;;;;44.33;34.15;;;20.20;99.90;;;;;;5045870;28;20428;-80
2023/06/29 07:04:56;;;;;;;46.90;36.05;;;20.20;99.90;;;;;;5045751;28;20401;-80
2023/06/29 07:07:22;;;;;;;45.60;36.00;;;20.20;99.90;;;;;;5048327;28;20495;-80
2023/06/29 07:09:47;;;;;;;48.50;36.00;;;20.20;99.90;;;;;;5037805;28;20427;-80
2023/06/29 07:12:13;;;;;;;48.93;36.83;;;20.30;99.90;;;;;;5035521;28;20430;-80
2023/06/29 07:14:39;;;;;;;46.60;35.78;;;20.30;99.90;;;;;;5042669;28;20405;-80
2023/06/29 07:17:05;;;;;;;47.37;36.10;;;20.40;99.90;;;;;;5038264;28;20434;-80
2023/06/29 07:19:31;;;;;;;51.05;36.67;;;20.40;99.90;;;;;;5040753;28;20413;-80
2023/06/29 07:21:56;;;;;;;50.40;37.65;;;20.40;99.90;;;;;;5036257;28;20997;-80
2023/06/29 07:24:22;;;;;;;51.57;38.70;;;20.50;99.90;;;;;;5051824;28;20422;-80
2023/06/29 07:29:16;;;;;;;48.55;36.40;;;20.60;99.90;;;;;;5065636;28;20723;-65
2023/06/29 07:31:41;;;;;;;46.10;36.17;;;20.60;99.90;;;;;;5057322;28;20750;-65
2023/06/29 07:34:07;;;;;;;47.67;36.53;;;20.60;99.90;;;;;;5071988;28;20427;-65
2023/06/29 07:36:34;;;;;;;50.70;36.80;;;20.60;99.90;;;;;;5065858;28;20483;-65
2023/06/29 07:38:59;;;;;;;49.60;36.92;;;20.50;99.90;;;;;;5052773;28;20405;-65
2023/06/29 07:41:26;;;;;;;48.63;36.00;;;20.50;99.90;;;;;;5066142;28;20883;-66
2023/06/29 07:43:56;;;;;;;50.15;36.47;;;20.50;99.90;;;;;;5047639;28;20582;-66
2023/06/29 07:46:22;;;;;;;52.05;36.45;;;20.50;99.90;;;;;;5040968;28;20401;-65
2023/06/29 07:48:49;;;;;;;48.65;36.15;;;20.50;99.90;;;;;;5049441;28;20435;-65
2023/06/29 07:51:15;;;;;;;48.15;36.75;;;20.50;99.90;;;;;;5061468;28;20404;-65
2023/06/29 07:53:41;;;;;;;52.00;37.85;;;20.50;99.90;;;;;;5056556;28;20831;-65
2023/06/29 07:56:07;;;;;;;48.83;36.45;;;20.50;99.90;;;;;;5058067;28;20417;-66
2023/06/29 07:58:32;;;;;;;50.90;36.90;;;20.50;99.90;;;;;;5045216;28;20903;-66
2023/06/29 08:00:58;;;;;;;53.88;38.58;;;20.60;99.90;;;;;;5059556;28;20414;-65
2023/06/29 08:03:24;;;;;;;49.93;37.37;;;20.60;99.90;;;;;;5048069;28;20397;-65
2023/06/29 08:05:51;;;;;;;49.07;36.70;;;20.60;99.90;;;;;;5057753;28;20444;-65
2023/06/29 08:08:17;;;;;;;47.22;33.63;;;20.60;99.90;;;;;;5054663;28;20412;-65
2023/06/29 08:10:43;;;;;;;44.25;33.53;;;20.70;99.90;;;;;;5064643;28;20399;-65
2023/06/29 08:13:09;;;;;;;44.28;32.85;;;20.70;99.90;;;;;;5059518;28;20435;-65
2023/06/29 08:15:34;;;;;;;45.47;34.50;;;20.80;99.90;;;;;;5043805;28;20422;-65
2023/06/29 08:18:00;;;;;;;47.33;33.67;;;20.80;99.90;;;;;;5048185;28;20410;-65
2023/06/29 08:20:26;;;;;;;44.60;33.87;;;20.90;99.90;;;;;;5058882;28;20509;-65
2023/06/29 08:22:52;;;;;;;49.75;35.65;;;20.90;99.90;;;;;;5060807;28;20406;-64
2023/06/29 08:25:21;;;;;;;45.27;33.63;;;21.00;99.90;;;;;;5043425;28;20523;-65
2023/06/29 08:27:46;;;;;;;46.20;34.38;;;21.00;99.90;;;;;;5050192;28;20474;-65
2023/06/29 08:30:12;;;;;;;44.17;34.22;;;21.10;99.90;;;;;;5055590;28;20493;-64
2023/06/29 08:32:38;;;;;;;43.33;31.47;;;21.20;99.90;;;;;;5044732;28;20417;-65
2023/06/29 08:35:04;;;;;;;43.23;33.00;;;21.30;99.90;;;;;;5049796;28;20428;-65
2023/06/29 08:37:30;;;;;;;44.08;33.28;;;21.40;99.90;;;;;;5050858;28;20409;-65
2023/06/29 08:39:56;;;;;;;48.03;33.08;;;21.40;99.90;;;;;;5055458;28;20767;-65
2023/06/29 08:42:23;;;;;;;41.25;32.72;;;21.40;99.90;;;;;;5061224;28;20401;-65
2023/06/29 08:44:49;;;;;;;46.03;33.72;;;21.40;99.90;;;;;;5044017;28;20812;-65
2023/06/29 08:47:17;;;;;;;45.60;32.72;;;21.40;99.90;;;;;;5055112;28;20433;-65
2023/06/29 08:49:45;;;;;;;47.13;33.42;;;21.30;99.90;;;;;;5059996;28;20395;-62
2023/06/29 08:52:16;;;;;;;43.10;32.85;;;21.30;99.90;;;;;;5055911;28;20407;-62
2023/06/29 08:54:43;;;;;;;46.30;34.00;;;21.30;99.90;;;;;;5044278;28;20459;-62
2023/06/29 08:57:09;;;;;;;45.13;32.00;;;21.20;99.90;;;;;;5048721;28;20473;-62
2023/06/29 08:59:37;;;;;;;47.80;31.33;;;21.20;99.90;;;;;;5061672;28;20923;-63
2023/06/29 09:02:04;;;;;;;46.85;31.10;;;21.10;99.90;;;;;;5044292;28;20398;-62
2023/06/29 09:04:30;;;;;;;45.60;29.37;;;21.10;99.90;;;;;;5048316;28;20505;-62
2023/06/29 09:06:56;;;;;;;41.13;30.37;;;21.10;99.90;;;;;;5050081;28;20478;-62
2023/06/29 09:09:22;;;;;;;38.58;29.75;;;21.00;99.90;;;;;;5055139;28;20488;-63
2023/06/29 09:11:49;;;;;;;41.13;29.42;;;21.00;99.90;;;;;;5058403;28;20746;-62
2023/06/29 09:14:15;;;;;;;36.80;28.67;;;21.00;99.90;;;;;;5047212;28;20424;-62
2023/06/29 09:16:51;;;;;;;39.38;28.20;;;21.00;99.90;;;;;;5048110;28;20414;-62
2023/06/29 09:19:18;;;;;;;37.08;27.50;;;20.90;99.90;;;;;;5056557;28;20407;-62
2023/06/29 09:21:47;;;;;;;34.05;27.20;;;20.90;99.90;;;;;;5040709;28;20423;-62
2023/06/29 09:24:14;;;;;;;34.85;25.55;;;20.80;99.90;;;;;;5045748;28;20906;-62
2023/06/29 09:26:40;;;;;;;39.58;26.88;;;20.80;99.90;;;;;;5035774;28;20464;-62
2023/06/29 09:29:06;;;;;;;33.78;25.48;;;20.70;99.90;;;;;;5056743;28;20427;-62
2023/06/29 09:31:35;;;;;;;35.97;26.95;;;20.70;99.90;;;;;;5058592;28;20404;-63
2023/06/29 09:34:20;;;;;;;35.13;26.98;;;20.80;99.90;;;;;;5016722;28;20429;-65
2023/06/29 09:36:48;;;;;;;36.67;27.30;;;20.80;99.90;;;;;;5024893;28;20431;-65
2023/06/29 09:39:14;;;;;;;37.70;26.25;;;20.80;99.90;;;;;;5041572;28;20433;-65
2023/06/29 09:41:45;;;;;;;35.45;26.92;;;20.90;99.90;;;;;;5046832;28;20424;-65
2023/06/29 09:44:12;;;;;;;35.30;26.87;;;20.90;99.90;;;;;;5038265;28;20406;-65
2023/06/29 09:46:41;;;;;;;36.53;27.10;;;20.90;99.90;;;;;;5051856;28;20396;-65
2023/06/29 09:49:10;;;;;;;38.42;28.17;;;21.00;99.90;;;;;;5034795;28;20514;-65
2023/06/29 09:51:38;;;;;;;38.58;27.75;;;21.00;99.90;;;;;;5028276;28;20412;-65
2023/06/29 09:54:04;;;;;;;40.65;28.08;;;21.10;99.90;;;;;;5026712;28;20432;-65
2023/06/29 09:56:33;;;;;;;39.45;27.92;;;21.10;99.90;;;;;;5026997;28;20429;-65
2023/06/29 09:59:01;;;;;;;36.90;28.30;;;21.20;99.90;;;;;;5045687;28;20787;-65
2023/06/29 10:01:28;;;;;;;39.33;28.17;;;21.20;99.90;;;;;;5034941;28;20415;-65
2023/06/29 10:03:55;;;;;;;37.97;27.50;;;21.30;99.90;;;;;;5044279;28;20974;-64
2023/06/29 10:06:30;;;;;;;38.50;28.50;;;21.30;99.90;;;;;;5041067;28;20418;-65
2023/06/29 10:08:59;;;;;;;35.10;27.15;;;21.30;99.90;;;;;;5041263;28;20394;-65
2023/06/29 10:11:31;;;;;;;38.22;28.10;;;21.40;99.90;;;;;;5045200;28;20471;-65
2023/06/29 10:14:01;;;;;;;39.10;28.67;;;21.40;99.90;;;;;;5036111;28;20406;-65
2023/06/29 10:16:32;;;;;;;35.92;27.27;;;21.40;99.90;;;;;;5039300;28;20432;-65
2023/06/29 10:19:27;;;;;;;37.58;26.65;;;21.40;99.90;;;;;;5035604;28;20453;-65
2023/06/29 10:21:59;;;;;;;37.08;27.38;;;21.40;99.90;;;;;;5036338;28;20401;-65
2023/06/29 10:24:30;;;;;;;35.83;27.58;;;21.50;99.90;;;;;;5040064;28;20408;-65
2023/06/29 10:26:57;;;;;;;39.92;27.60;;;21.60;99.90;;;;;;5045497;28;20416;-67
2023/06/29 10:29:22;;;;;;;34.97;25.60;;;21.70;99.90;;;;;;5046283;28;20791;-65
2023/06/29 10:31:49;;;;;;;32.60;26.23;;;21.80;99.90;;;;;;5033788;28;20425;-65
2023/06/29 10:34:15;;;;;;;34.07;26.93;;;21.80;99.90;;;;;;5039343;28;20401;-65
2023/06/29 10:36:45;;;;;;;34.77;26.43;;;21.80;99.90;;;;;;5044158;28;20420;-65
2023/06/29 10:39:42;;;;;;;36.10;26.85;;;21.80;99.90;;;;;;5049156;28;20918;-65
2023/06/29 10:42:28;;;;;;;37.65;27.83;;;21.90;99.90;;;;;;5041608;28;20445;-65
2023/06/29 10:44:54;;;;;;;36.63;27.63;;;21.90;99.90;;;;;;5034233;28;20406;-65
2023/06/29 10:47:36;;;;;;;36.80;27.87;;;22.00;99.90;;;;;;5046795;28;20403;-65
2023/06/29 10:50:17;;;;;;;38.72;28.45;;;22.10;99.90;;;;;;5047461;28;20419;-65
2023/06/29 10:52:43;;;;;;;34.03;27.27;;;22.20;99.90;;;;;;5054272;28;20488;-65
2023/06/29 10:55:23;;;;;;;34.78;27.80;;;22.40;99.90;;;;;;5058548;28;20395;-65
2023/06/29 10:58:06;;;;;;;36.22;27.83;;;22.70;99.90;;;;;;5049269;28;20950;-65
2023/06/29 11:00:31;;;;;;;40.08;28.27;;;22.90;99.90;;;;;;5042308;28;20417;-65
2023/06/29 11:02:59;;;;;;;36.00;27.77;;;23.10;99.90;;;;;;5038464;28;20904;-65
2023/06/29 11:05:24;;;;;;;35.57;27.30;;;23.30;99.90;;;;;;5054224;28;20426;-65
2023/06/29 11:07:52;;;;;;;36.27;27.60;;;23.60;99.90;;;;;;5046928;28;21046;-65
2023/06/29 11:10:22;;;;;;;35.30;27.33;;;23.70;99.90;;;;;;5052018;28;20511;-65
2023/06/29 11:12:54;;;;;;;37.22;27.85;;;23.80;99.90;;;;;;5035507;28;20405;-65
2023/06/29 11:15:21;;;;;;;36.58;28.45;;;24.00;99.90;;;;;;5042514;28;20782;-65
2023/06/29 11:17:50;;;;;;;35.88;28.23;;;23.90;99.90;;;;;;5042699;28;20409;-65
2023/06/29 11:20:18;;;;;;;37.95;29.48;;;24.00;99.90;;;;;;5043765;28;20467;-65
2023/06/29 11:22:45;;;;;;;34.77;28.13;;;24.00;99.90;;;;;;5039840;28;20529;-66
2023/06/29 11:25:15;;;;;;;33.10;27.60;;;24.00;99.90;;;;;;5043944;28;20482;-66
2023/06/29 11:27:45;;;;;;;35.75;29.33;;;24.10;99.90;;;;;;5048198;28;20498;-66
2023/06/29 11:30:11;;;;;;;35.00;27.98;;;24.20;99.90;;;;;;5036375;28;20427;-65
2023/06/29 11:32:38;;;;;;;33.53;26.27;;;24.20;99.90;;;;;;5057993;28;20410;-65
2023/06/29 11:35:05;;;;;;;32.22;25.20;;;24.20;99.90;;;;;;5051359;28;20417;-65
2023/06/29 11:37:32;;;;;;;31.85;25.02;;;24.20;99.90;;;;;;5043954;28;20793;-65
2023/06/29 11:39:58;;;;;;;31.63;25.65;;;24.30;99.90;;;;;;5039883;28;20434;-65
2023/06/29 11:42:24;;;;;;;30.77;24.80;;;24.50;99.90;;;;;;5060662;28;20400;-65
2023/06/29 11:45:04;;;;;;;31.08;25.02;;;24.60;99.90;;;;;;5040044;28;20403;-65
2023/06/29 11:47:30;;;;;;;32.00;25.83;;;24.70;99.90;;;;;;5040260;28;20433;-65
2023/06/29 11:50:00;;;;;;;31.15;25.63;;;24.60;99.90;;;;;;5058589;28;20417;-65
2023/06/29 11:52:32;;;;;;;29.63;24.02;;;24.60;99.90;;;;;;5039907;28;20411;-65
2023/06/29 11:55:03;;;;;;;28.90;24.10;;;24.50;99.90;;;;;;5048078;28;20393;-65
2023/06/29 11:57:37;;;;;;;30.00;24.40;;;24.30;99.90;;;;;;5051306;28;20447;-65
2023/06/29 12:00:23;;;;;;;33.08;25.58;;;24.20;99.90;;;;;;5049511;28;20447;-65
2023/06/29 12:02:48;;;;;;;32.95;25.50;;;24.10;99.90;;;;;;5045081;28;20878;-65
2023/06/29 12:05:14;;;;;;;32.03;25.48;;;24.10;99.90;;;;;;5053353;28;20442;-65
2023/06/29 12:07:41;;;;;;;32.50;25.77;;;24.00;99.90;;;;;;5058566;28;20418;-65
2023/06/29 12:10:22;;;;;;;33.17;26.65;;;24.00;99.90;;;;;;5051934;28;20395;-65
2023/06/29 12:12:56;;;;;;;35.83;27.53;;;23.90;99.90;;;;;;5048286;28;20957;-65
2023/06/29 12:15:26;;;;;;;32.03;26.88;;;24.00;99.90;;;;;;5050598;28;20421;-65
2023/06/29 12:17:58;;;;;;;32.83;25.43;;;24.10;99.90;;;;;;5052656;28;20787;-65
2023/06/29 12:20:25;;;;;;;32.27;25.17;;;24.20;99.90;;;;;;5057533;28;20828;-65
2023/06/29 12:22:55;;;;;;;30.55;24.63;;;24.40;99.90;;;;;;5052332;28;20393;-65
2023/06/29 12:25:21;;;;;;;29.23;23.13;;;24.60;99.90;;;;;;5052858;28;20404;-65
2023/06/29 12:27:49;;;;;;;29.30;23.27;;;24.70;99.90;;;;;;5050897;28;20464;-66
2023/06/29 12:30:18;;;;;;;29.20;23.58;;;24.80;99.90;;;;;;5054291;28;20433;-65